الصفحة الرئيسية
METAR-TAF:

METAR-TAF

مطار :

مطار ستوكهولم أرلاندا

ستوكهولم-Arlanda, السويد

دائرة عرض: 59-39N, خط طول: 017-57E, ارتفاع: 38 متر

مراقبة الطقس الحالي

تاريخ ووقت الإصدار 36 دقيقة قبل الساعة 11:20UTC
ريح 14 عقدة من الشمال الشرقي
درجة الحرارة 21°درجة مئوية
الرطوبة 28%
ضغط 1031 hPa
الرؤية 10 كم أو أكثر
الغيوم لا تقل 1500 م ولا وجود لمزنة ركامية السحاب الأسود

METAR: ESSA 271120Z 04014KT CAVOK 21/02 Q1031 NOSIG

زمن: 13:56 (11:56 UTC)

توقعات

تاريخ ووقت الإصدار 26 دقيقة قبل الساعة 11:30UTC
التوقعات صالحة من27 الساعة 12 UTC إلى 28 الساعة 12 UTC
ريح 13 عقدة من الشمال الشرقي
الرؤية 10 كم أو أكثر
الغيوم لا تقل 1500 م ولا وجود لمزنة ركامية السحاب الأسود
أصبح
من 27 الساعة 19 UTC إلى 27 الساعة 21 UTC
ريح 3 عقدة من الشمال/الشمال الشرقي
أصبح
من 28 الساعة 10 UTC إلى 28 الساعة 12 UTC
ريح 10 عقدة من الجنوب الشرقي

TAF: ESSA 271130Z 2712/2812 04013KT CAVOK BECMG 2719/2721 03003KT BECMG 2810/2812 13010KT

أرصاد الطقس والتوقعات من أكثر من 4000 مطار (تقارير الطقس للمطار METAR والتنبؤ بالطقس بالمطارTAF).

المحطات المتاحة هي النقط الصفراء والحمراء على الخريطة.

حرك المؤشر فوق النقطة لمعرفة اسم المحطة.

ثم انقر لمعرفة أرصاد وتوقعات الطقس.

لتغيير الخارطة: اضغط على الأزرار الخضراء مع رمز الصليب الأسود للتكبير. على الزر الأخضر مع شرطة للتصغير، أو على الأسهم الخضراء للخرائط المجاورة.


METAR-TAF: